Time;durP1;ratioP1;P1;durP2;ratioP2;P2;SDS_P1;SDS_P2;PMS_P1;PMS_P2;Temp;Humidity;BMP_temperature;BMP_pressure;BME280_temperature;BME280_humidity;BME280_pressure;Samples;Min_cycle;Max_cycle;Signal;HPM_P1;HPM_P2
2022/08/28 00:00:22;;;;;;;;;;;12.40;99.90;;;;;;5075989;28;19923;-67
2022/08/28 00:02:48;;;;;;;;;;;12.40;99.90;;;;;;5059132;28;19927;-68
2022/08/28 00:05:16;;;;;;;;;;;12.40;99.90;;;;;;5075489;28;19920;-67
2022/08/28 00:07:42;;;;;;;;;;;12.30;99.90;;;;;;5058595;28;19927;-67
2022/08/28 00:10:08;;;;;;;;;;;12.30;99.90;;;;;;5075480;28;19920;-68
2022/08/28 00:12:35;;;;;;;;;;;12.30;99.90;;;;;;5058698;28;19938;-67
2022/08/28 00:15:01;;;;;;;;;;;12.30;99.90;;;;;;5074362;28;19926;-67
2022/08/28 00:17:27;;;;;;;;;;;12.30;99.90;;;;;;5093461;28;19927;-67
2022/08/28 00:19:52;;;;;;;;;;;12.30;99.90;;;;;;5075209;28;19928;-67
2022/08/28 00:22:18;;;;;;;;;;;12.30;99.90;;;;;;5074327;28;19959;-67
2022/08/28 00:24:44;;;;;;;;;;;12.30;99.90;;;;;;5074631;28;19978;-67
2022/08/28 00:29:54;;;;;;;;;;;12.30;99.90;;;;;;5074489;28;19927;-67
2022/08/28 00:32:22;;;;;;;;;;;12.30;99.90;;;;;;5074518;28;19928;-67
2022/08/28 00:34:48;;;;;;;;;;;12.30;99.90;;;;;;5074227;28;19928;-67
2022/08/28 00:37:13;;;;;;;;;;;12.20;99.90;;;;;;5074084;28;19924;-67
2022/08/28 00:39:39;;;;;;;;;;;12.20;99.90;;;;;;5057307;28;19943;-67
2022/08/28 00:42:04;;;;;;;;;;;12.20;99.90;;;;;;5073957;28;20473;-67
2022/08/28 00:44:30;;;;;;;;;;;12.10;99.90;;;;;;5074366;28;19967;-67
2022/08/28 00:46:57;;;;;;;;;;;12.00;99.90;;;;;;5074551;28;19931;-67
2022/08/28 00:49:25;;;;;;;;;;;12.00;99.90;;;;;;5074669;28;19931;-67
2022/08/28 00:54:41;;;;;;;;;;;12.00;99.90;;;;;;5074728;28;20282;-67
2022/08/28 00:57:08;;;;;;;;;;;12.10;99.90;;;;;;5074249;28;19935;-67
2022/08/28 00:59:33;;;;;;;;;;;12.10;99.90;;;;;;5074072;28;20019;-67
2022/08/28 01:01:59;;;;;;;;;;;12.10;99.90;;;;;;5074217;28;20023;-67
2022/08/28 01:04:26;;;;;;;;;;;12.10;99.90;;;;;;5074213;28;20369;-67
2022/08/28 01:06:53;;;;;;;;;;;12.10;99.90;;;;;;5074230;28;20322;-67
2022/08/28 01:09:19;;;;;;;;;;;12.10;99.90;;;;;;5074036;28;19920;-67
2022/08/28 01:11:46;;;;;;;;;;;12.10;99.90;;;;;;5073869;28;19985;-67
2022/08/28 01:14:12;;;;;;;;;;;12.00;99.90;;;;;;5091945;28;19920;-67
2022/08/28 01:16:39;;;;;;;;;;;12.00;99.90;;;;;;5073844;28;19969;-67
2022/08/28 01:19:06;;;;;;;;;;;12.00;99.90;;;;;;5073697;28;20329;-67
2022/08/28 01:21:36;;;;;;;;;;;12.00;99.90;;;;;;5074072;28;20316;-67
2022/08/28 01:24:05;;;;;;;;;;;12.00;99.90;;;;;;5073786;28;20056;-67
2022/08/28 01:26:30;;;;;;;;;;;12.00;99.90;;;;;;5073224;28;19984;-67
2022/08/28 01:28:57;;;;;;;;;;;12.00;99.90;;;;;;5072984;28;20372;-67
2022/08/28 01:31:23;;;;;;;;;;;12.00;99.90;;;;;;5073157;28;20674;-67
2022/08/28 01:33:49;;;;;;;;;;;12.00;99.90;;;;;;5073257;28;19931;-67
2022/08/28 01:36:15;;;;;;;;;;;12.00;99.90;;;;;;5073715;28;19920;-67
2022/08/28 01:38:42;;;;;;;;;;;12.10;99.90;;;;;;5073213;28;19969;-68
2022/08/28 01:41:07;;;;;;;;;;;12.10;99.90;;;;;;5073056;28;19936;-67
2022/08/28 01:43:33;;;;;;;;;;;12.10;99.90;;;;;;5072923;28;19932;-67
2022/08/28 01:46:04;;;;;;;;;;;12.10;99.90;;;;;;5072953;28;19920;-67
2022/08/28 01:48:31;;;;;;;;;;;12.00;99.90;;;;;;5072843;28;19956;-67
2022/08/28 01:50:56;;;;;;;;;;;11.90;99.90;;;;;;5072733;28;19921;-67
2022/08/28 01:53:23;;;;;;;;;;;12.00;99.90;;;;;;5091096;28;20018;-67
2022/08/28 01:55:49;;;;;;;;;;;11.90;99.90;;;;;;5073024;28;19924;-67
2022/08/28 01:58:15;;;;;;;;;;;11.90;99.90;;;;;;5090867;28;19927;-67
2022/08/28 02:00:41;;;;;;;;;;;11.90;99.90;;;;;;5072788;28;19924;-67
2022/08/28 02:03:06;;;;;;;;;;;11.80;99.90;;;;;;5072639;28;19996;-68
2022/08/28 02:05:32;;;;;;;;;;;11.90;99.90;;;;;;5056115;28;19927;-67
2022/08/28 02:07:59;;;;;;;;;;;11.80;99.90;;;;;;5072876;28;20397;-67
2022/08/28 02:10:25;;;;;;;;;;;11.80;99.90;;;;;;5072658;28;19924;-67
2022/08/28 02:12:51;;;;;;;;;;;11.80;99.90;;;;;;5072850;28;19963;-67
2022/08/28 02:15:17;;;;;;;;;;;11.80;99.90;;;;;;5072809;28;19928;-68
2022/08/28 02:17:43;;;;;;;;;;;11.70;99.90;;;;;;5072852;28;19928;-67
2022/08/28 02:20:09;;;;;;;;;;;11.60;99.90;;;;;;5073122;28;20300;-67
2022/08/28 02:22:34;;;;;;;;;;;11.60;99.90;;;;;;5056692;28;20010;-67
2022/08/28 02:25:00;;;;;;;;;;;11.50;99.90;;;;;;5091118;28;20354;-67
2022/08/28 02:27:25;;;;;;;;;;;11.50;99.90;;;;;;5073037;28;20684;-67
2022/08/28 02:29:51;;;;;;;;;;;11.60;99.90;;;;;;5072865;28;19924;-67
2022/08/28 02:32:17;;;;;;;;;;;11.60;99.90;;;;;;5072825;28;19973;-67
2022/08/28 02:34:42;;;;;;;;;;;11.60;99.90;;;;;;5072792;28;19924;-67
2022/08/28 02:37:10;;;;;;;;;;;11.60;99.90;;;;;;5056126;28;19920;-67
2022/08/28 02:39:36;;;;;;;;;;;11.60;99.90;;;;;;5059452;28;20006;-67
2022/08/28 02:42:01;;;;;;;;;;;11.50;99.90;;;;;;5076565;28;20007;-67
2022/08/28 02:44:27;;;;;;;;;;;11.50;99.90;;;;;;5076543;28;20296;-67
2022/08/28 02:46:52;;;;;;;;;;;11.60;99.90;;;;;;5076461;28;19924;-67
2022/08/28 02:49:18;;;;;;;;;;;11.60;99.90;;;;;;5076222;28;20015;-67
2022/08/28 02:51:44;;;;;;;;;;;11.50;99.90;;;;;;5094550;28;20424;-67
2022/08/28 02:54:09;;;;;;;;;;;11.50;99.90;;;;;;5076263;28;19931;-67
2022/08/28 02:56:34;;;;;;;;;;;11.40;99.90;;;;;;5076212;28;19966;-67
2022/08/28 02:59:00;;;;;;;;;;;11.40;99.90;;;;;;5076319;28;19928;-67
2022/08/28 03:01:26;;;;;;;;;;;11.40;99.90;;;;;;5076546;28;20281;-67
2022/08/28 03:03:51;;;;;;;;;;;11.30;99.90;;;;;;5076495;28;20358;-67
2022/08/28 03:06:17;;;;;;;;;;;11.30;99.90;;;;;;5076087;28;19920;-67
2022/08/28 03:08:42;;;;;;;;;;;11.30;99.90;;;;;;5075949;28;19935;-67
2022/08/28 03:11:08;;;;;;;;;;;11.30;99.90;;;;;;5059271;28;20377;-67
2022/08/28 03:13:34;;;;;;;;;;;11.30;99.90;;;;;;5076374;28;19924;-67
2022/08/28 03:16:00;;;;;;;;;;;11.20;99.90;;;;;;5093989;28;19920;-67
2022/08/28 03:18:28;;;;;;;;;;;11.20;99.90;;;;;;5075817;28;19934;-67
2022/08/28 03:20:54;;;;;;;;;;;11.20;99.90;;;;;;5059021;28;19926;-67
2022/08/28 03:23:26;;;;;;;;;;;11.20;99.90;;;;;;5076126;28;20002;-67
2022/08/28 03:25:53;;;;;;;;;;;11.20;99.90;;;;;;5076025;28;19930;-67
2022/08/28 03:28:18;;;;;;;;;;;11.10;99.90;;;;;;5094339;28;20281;-67
2022/08/28 03:30:44;;;;;;;;;;;11.10;99.90;;;;;;5075375;28;19930;-67
2022/08/28 03:33:10;;;;;;;;;;;11.00;99.90;;;;;;5059031;28;19928;-67
2022/08/28 03:35:36;;;;;;;;;;;11.00;99.90;;;;;;5075421;28;19927;-67
2022/08/28 03:38:02;;;;;;;;;;;10.90;99.90;;;;;;5075371;28;20588;-67
2022/08/28 03:40:27;;;;;;;;;;;10.90;99.90;;;;;;5075317;28;19924;-67
2022/08/28 03:42:53;;;;;;;;;;;10.90;99.90;;;;;;5075441;28;19930;-67
2022/08/28 03:45:19;;;;;;;;;;;10.90;99.90;;;;;;5075116;28;19920;-67
2022/08/28 03:47:45;;;;;;;;;;;10.90;99.90;;;;;;5075235;28;20288;-67
2022/08/28 03:50:11;;;;;;;;;;;10.90;99.90;;;;;;5058076;28;19973;-67
2022/08/28 03:52:38;;;;;;;;;;;10.90;99.90;;;;;;5075141;28;20374;-67
2022/08/28 03:55:04;;;;;;;;;;;10.90;99.90;;;;;;5075008;28;19924;-67
2022/08/28 03:57:29;;;;;;;;;;;10.90;99.90;;;;;;5075255;28;19945;-67
2022/08/28 03:59:55;;;;;;;;;;;10.80;99.90;;;;;;5075068;28;19924;-67
2022/08/28 04:02:20;;;;;;;;;;;10.90;99.90;;;;;;5075220;28;19924;-67
2022/08/28 04:04:47;;;;;;;;;;;10.80;99.90;;;;;;5074896;28;20377;-67
2022/08/28 04:07:13;;;;;;;;;;;10.80;99.90;;;;;;5074746;28;19927;-67
2022/08/28 04:09:38;;;;;;;;;;;10.80;99.90;;;;;;5074808;28;19920;-67
2022/08/28 04:12:04;;;;;;;;;;;10.80;99.90;;;;;;5074949;28;19982;-67
2022/08/28 04:14:29;;;;;;;;;;;10.70;99.90;;;;;;5075421;28;19976;-67
2022/08/28 04:16:55;;;;;;;;;;;10.70;99.90;;;;;;5058160;28;20392;-67
2022/08/28 04:19:20;;;;;;;;;;;10.60;99.90;;;;;;5092930;28;19920;-67
2022/08/28 04:21:46;;;;;;;;;;;10.60;99.90;;;;;;5074478;28;20377;-67
2022/08/28 04:24:12;;;;;;;;;;;10.60;99.90;;;;;;5074656;28;19927;-67
2022/08/28 04:26:37;;;;;;;;;;;10.60;99.90;;;;;;5092517;28;19920;-67
2022/08/28 04:29:03;;;;;;;;;;;10.50;99.90;;;;;;5092333;28;19928;-67
2022/08/28 04:31:29;;;;;;;;;;;10.50;99.90;;;;;;5057699;28;19935;-67
2022/08/28 04:33:54;;;;;;;;;;;10.50;99.90;;;;;;5074143;28;19928;-67
2022/08/28 04:36:20;;;;;;;;;;;10.50;99.90;;;;;;5074207;28;19920;-67
2022/08/28 04:38:45;;;;;;;;;;;10.50;99.90;;;;;;5074076;28;19968;-67
2022/08/28 04:41:12;;;;;;;;;;;10.50;99.90;;;;;;5073535;28;19924;-67
2022/08/28 04:43:38;;;;;;;;;;;;;;;;;;5073333;28;20405;-67
2022/08/28 04:46:05;;;;;;;;;;;10.40;99.90;;;;;;5073522;28;19971;-67
2022/08/28 04:48:31;;;;;;;;;;;10.50;99.90;;;;;;5073850;28;19923;-67
2022/08/28 04:50:57;;;;;;;;;;;10.50;99.90;;;;;;5073734;28;19920;-67
2022/08/28 04:53:23;;;;;;;;;;;10.40;99.90;;;;;;5074125;28;19978;-67
2022/08/28 04:55:50;;;;;;;;;;;10.50;99.90;;;;;;5074175;28;19934;-67
2022/08/28 04:58:16;;;;;;;;;;;10.50;99.90;;;;;;5074383;28;19920;-67
2022/08/28 05:00:44;;;;;;;;;;;10.60;99.90;;;;;;5092012;28;19920;-67
2022/08/28 05:03:10;;;;;;;;;;;10.60;99.90;;;;;;5074060;28;20403;-67
2022/08/28 05:05:43;;;;;;;;;;;10.60;99.90;;;;;;5074372;28;19924;-67
2022/08/28 05:08:09;;;;;;;;;;;10.60;99.90;;;;;;5073779;28;19920;-67
2022/08/28 05:10:34;;;;;;;;;;;10.60;99.90;;;;;;5073797;28;20420;-67
2022/08/28 05:13:00;;;;;;;;;;;10.70;99.90;;;;;;5073953;28;19932;-67
2022/08/28 05:15:25;;;;;;;;;;;10.70;99.90;;;;;;5074426;28;19931;-67
2022/08/28 05:17:51;;;;;;;;;;;10.80;99.90;;;;;;5074124;28;19924;-67
2022/08/28 05:20:16;;;;;;;;;;;10.80;99.90;;;;;;5073804;28;19920;-67
2022/08/28 05:22:42;;;;;;;;;;;10.90;99.90;;;;;;5057050;28;19920;-67
2022/08/28 05:25:07;;;;;;;;;;;10.90;99.90;;;;;;5092136;28;20014;-67
2022/08/28 05:27:34;;;;;;;;;;;11.00;99.90;;;;;;5073763;28;19994;-67
2022/08/28 05:29:59;;;;;;;;;;;11.00;99.90;;;;;;5091950;28;19924;-67
2022/08/28 05:32:25;;;;;;;;;;;11.10;99.90;;;;;;5073761;28;19924;-67
2022/08/28 05:34:53;;;;;;;;;;;11.10;99.90;;;;;;5073691;28;20542;-67
2022/08/28 05:37:19;;;;;;;;;;;11.20;99.90;;;;;;5073858;28;19920;-67
2022/08/28 05:39:44;;;;;;;;;;;11.20;99.90;;;;;;5056789;28;20010;-67
2022/08/28 05:42:10;;;;;;;;;;;11.30;99.90;;;;;;5073431;28;20274;-67
2022/08/28 05:44:35;;;;;;;;;;;11.60;99.90;;;;;;5056932;28;19920;-67
2022/08/28 05:47:01;;;;;;;;;;;12.00;99.90;;;;;;5073892;28;20338;-67
2022/08/28 05:49:27;;;;;;;;;;;13.30;99.90;;;;;;5073544;28;19924;-67
2022/08/28 05:51:52;;;;;;;;;;;14.60;99.90;;;;;;5073803;28;19993;-67
2022/08/28 05:54:18;;;;;;;;;;;;;;;;;;5073520;28;20015;-67
2022/08/28 05:56:44;;;;;;;;;;;16.90;99.90;;;;;;5073418;28;20315;-67
2022/08/28 05:59:10;;;;;;;;;;;17.80;99.90;;;;;;5073445;28;20035;-67
2022/08/28 06:01:41;;;;;;;;;;;18.80;99.90;;;;;;5073330;28;19920;-67
2022/08/28 06:04:09;;;;;;;;;;;19.60;99.70;;;;;;5091444;28;19985;-67
2022/08/28 06:06:37;;;;;;;;;;;20.30;97.40;;;;;;5073631;28;20413;-67
2022/08/28 06:09:05;;;;;;;;;;;21.10;96.40;;;;;;5073262;28;19920;-67
2022/08/28 06:11:31;;;;;;;;;;;;;;;;;;5073539;28;19928;-67
2022/08/28 06:13:59;;;;;;;;;;;22.10;93.70;;;;;;5077140;28;20284;-67
2022/08/28 06:16:25;;;;;;;;;;;22.80;92.70;;;;;;5077551;28;20323;-68
2022/08/28 06:18:50;;;;;;;;;;;23.40;95.90;;;;;;5060430;28;19924;-68
2022/08/28 06:21:16;;;;;;;;;;;23.50;91.30;;;;;;5077272;28;19927;-67
2022/08/28 06:23:43;;;;;;;;;;;;;;;;;;5077193;28;19920;-67
2022/08/28 06:26:08;;;;;;;;;;;24.70;89.50;;;;;;5077371;28;19924;-68
2022/08/28 06:28:34;;;;;;;;;;;25.20;90.50;;;;;;5077410;28;19920;-67
2022/08/28 06:31:01;;;;;;;;;;;25.50;87.00;;;;;;5076988;28;20441;-68
2022/08/28 06:33:26;;;;;;;;;;;26.00;91.60;;;;;;5077109;28;20282;-68
2022/08/28 06:35:53;;;;;;;;;;;25.70;85.40;;;;;;5076775;28;19994;-68
2022/08/28 06:38:20;;;;;;;;;;;26.40;90.40;;;;;;5059732;28;19927;-68
2022/08/28 06:40:50;;;;;;;;;;;26.50;85.40;;;;;;5076568;28;19939;-68
2022/08/28 06:43:16;;;;;;;;;;;26.70;81.90;;;;;;5094750;28;19999;-67
2022/08/28 06:45:43;;;;;;;;;;;26.90;81.90;;;;;;5059843;28;20427;-67
2022/08/28 06:48:09;;;;;;;;;;;26.80;80.20;;;;;;5060022;28;19928;-68
2022/08/28 06:50:39;;;;;;;;;;;27.20;80.70;;;;;;5076437;28;19927;-68
2022/08/28 06:53:05;;;;;;;;;;;27.40;83.10;;;;;;5069623;22;20000;-69
2022/08/28 06:55:32;;;;;;;;;;;27.60;79.10;;;;;;5012954;28;19933;-69
2022/08/28 06:57:57;;;;;;;;;;;;;;;;;;5016357;28;20367;-69
2022/08/28 07:00:23;;;;;;;;;;;28.40;80.90;;;;;;5016222;28;19921;-70
2022/08/28 07:02:49;;;;;;;;;;;28.80;75.80;;;;;;5016361;28;19928;-69
2022/08/28 07:05:14;;;;;;;;;;;28.90;74.60;;;;;;5016201;28;19933;-70
2022/08/28 07:07:40;;;;;;;;;;;29.30;75.20;;;;;;5034395;28;19925;-70
2022/08/28 07:10:05;;;;;;;;;;;29.60;78.70;;;;;;5016430;28;19971;-70
2022/08/28 07:12:31;;;;;;;;;;;29.60;73.00;;;;;;5016388;28;19948;-70
2022/08/28 07:14:56;;;;;;;;;;;29.70;73.00;;;;;;5015896;28;20390;-69
2022/08/28 07:17:22;;;;;;;;;;;29.50;72.80;;;;;;5016023;28;19921;-70
2022/08/28 07:19:47;;;;;;;;;;;29.80;71.80;;;;;;5016373;28;19921;-69
2022/08/28 07:22:13;;;;;;;;;;;29.50;71.10;;;;;;5016093;28;19925;-70
2022/08/28 07:24:38;;;;;;;;;;;28.90;72.10;;;;;;5015422;28;19951;-69
2022/08/28 07:27:04;;;;;;;;;;;28.40;71.90;;;;;;5034220;28;19929;-70
2022/08/28 07:29:29;;;;;;;;;;;28.10;72.40;;;;;;5016476;28;19921;-70
2022/08/28 07:31:57;;;;;;;;;;;26.50;70.60;;;;;;5016447;28;19932;-70
2022/08/28 07:34:23;;;;;;;;;;;27.80;72.10;;;;;;5016015;28;20402;-70
2022/08/28 07:36:51;;;;;;;;;;;28.50;69.60;;;;;;5016397;28;20043;-69
2022/08/28 07:39:17;;;;;;;;;;;27.80;72.80;;;;;;5016306;28;19925;-69
2022/08/28 07:41:43;;;;;;;;;;;27.00;73.90;;;;;;5000030;28;19928;-69
2022/08/28 07:46:58;;;;;;;;;;;24.70;74.80;;;;;;5016503;28;19921;-69
2022/08/28 07:49:24;;;;;;;;;;;23.70;77.80;;;;;;5015941;28;20386;-69
2022/08/28 07:51:49;;;;;;;;;;;22.70;80.30;;;;;;5016447;28;19929;-69
2022/08/28 07:54:16;;;;;;;;;;;22.10;82.10;;;;;;5015849;28;20493;-68
2022/08/28 07:56:41;;;;;;;;;;;21.60;83.50;;;;;;5033853;28;19932;-68
2022/08/28 07:59:08;;;;;;;;;;;21.10;85.50;;;;;;5033970;28;19925;-69
2022/08/28 08:01:38;;;;;;;;;;;20.80;86.10;;;;;;5015891;28;20003;-68
2022/08/28 08:04:06;;;;;;;;;;;20.60;86.50;;;;;;5033758;28;19924;-69
2022/08/28 08:06:32;;;;;;;;;;;20.40;87.90;;;;;;5015788;28;20023;-69
2022/08/28 08:08:57;;;;;;;;;;;20.30;88.90;;;;;;5015582;28;20028;-68
2022/08/28 08:11:23;;;;;;;;;;;20.30;88.20;;;;;;5015672;28;20436;-68
2022/08/28 08:13:48;;;;;;;;;;;20.40;88.20;;;;;;5016118;28;20381;-68
2022/08/28 08:16:16;;;;;;;;;;;20.40;90.60;;;;;;4999193;28;19925;-69
2022/08/28 08:18:42;;;;;;;;;;;20.40;86.90;;;;;;4999216;28;19931;-68
2022/08/28 08:21:10;;;;;;;;;;;20.60;86.70;;;;;;5015466;28;19928;-69
2022/08/28 08:23:37;;;;;;;;;;;20.40;84.80;;;;;;5015524;28;19928;-69
2022/08/28 08:26:05;;;;;;;;;;;20.60;86.70;;;;;;5015709;28;19991;-69
2022/08/28 08:28:31;;;;;;;;;;;20.70;86.50;;;;;;5015798;28;19925;-67
2022/08/28 08:31:03;;;;;;;;;;;20.90;86.10;;;;;;5015032;28;19925;-66
2022/08/28 08:33:28;;;;;;;;;;;21.10;85.40;;;;;;5015292;28;19991;-66
2022/08/28 08:35:54;;;;;;;;;;;21.00;85.20;;;;;;5014214;28;19925;-66
2022/08/28 08:38:20;;;;;;;;;;;20.60;85.40;;;;;;5032952;28;19925;-66
2022/08/28 08:40:45;;;;;;;;;;;20.30;87.40;;;;;;5014977;28;19948;-66
2022/08/28 08:43:13;;;;;;;;;;;20.20;87.60;;;;;;5014758;28;19928;-66
2022/08/28 08:45:39;;;;;;;;;;;20.30;88.30;;;;;;5014396;28;19921;-67
2022/08/28 08:48:04;;;;;;;;;;;20.40;89.30;;;;;;5014674;28;19951;-66
2022/08/28 08:50:31;;;;;;;;;;;20.60;88.20;;;;;;5014153;28;19925;-67
2022/08/28 08:53:21;;;;;;;;;;;20.90;88.70;;;;;;5032371;28;19936;-67
2022/08/28 08:55:49;;;;;;;;;;;21.10;87.90;;;;;;5014986;28;19924;-66
2022/08/28 08:58:33;;;;;;;;;;;21.30;85.60;;;;;;5015043;28;19971;-67
2022/08/28 09:01:11;;;;;;;;;;;21.20;84.60;;;;;;5031805;28;20433;-67
2022/08/28 09:03:37;;;;;;;;;;;20.90;86.50;;;;;;5031875;28;20024;-67
2022/08/28 09:06:04;;;;;;;;;;;21.00;86.50;;;;;;5013968;28;19987;-66
2022/08/28 09:08:29;;;;;;;;;;;20.90;86.60;;;;;;5013958;28;20043;-66
2022/08/28 09:10:59;;;;;;;;;;;21.10;86.00;;;;;;5031164;28;19972;-66
2022/08/28 09:13:36;;;;;;;;;;;20.80;86.80;;;;;;5013868;28;19932;-66
2022/08/28 09:16:04;;;;;;;;;;;20.80;87.50;;;;;;5014130;28;20330;-66
2022/08/28 09:18:34;;;;;;;;;;;20.70;87.50;;;;;;4997606;28;19971;-66
2022/08/28 09:20:59;;;;;;;;;;;20.60;89.50;;;;;;4997446;28;19921;-66
2022/08/28 09:23:26;;;;;;;;;;;20.50;88.50;;;;;;4998039;28;19991;-66
2022/08/28 09:25:57;;;;;;;;;;;20.40;88.20;;;;;;5032071;28;20323;-66
2022/08/28 09:28:22;;;;;;;;;;;20.60;87.70;;;;;;5032199;28;19964;-66
2022/08/28 09:30:57;;;;;;;;;;;20.80;88.00;;;;;;5032127;28;19968;-66
2022/08/28 09:33:30;;;;;;;;;;;21.10;85.50;;;;;;5014432;28;19925;-66
2022/08/28 09:35:55;;;;;;;;;;;21.30;85.00;;;;;;5014106;28;19921;-66
2022/08/28 09:38:22;;;;;;;;;;;21.60;84.40;;;;;;5014597;28;20426;-66
2022/08/28 09:43:43;;;;;;;;;;;21.70;84.40;;;;;;4998934;28;19925;-66
2022/08/28 09:46:29;;;;;;;;;;;21.80;82.90;;;;;;5014308;28;19931;-66
2022/08/28 09:49:07;;;;;;;;;;;21.90;82.90;;;;;;4998136;28;20040;-66
2022/08/28 09:51:35;;;;;;;;;;;21.90;82.20;;;;;;5014306;28;19979;-65
2022/08/28 09:54:06;;;;;;;;;;;21.80;81.60;;;;;;5013891;28;20286;-66
2022/08/28 09:56:34;;;;;;;;;;;21.40;82.10;;;;;;5031919;28;19925;-66
2022/08/28 09:59:01;;;;;;;;;;;21.40;82.40;;;;;;5014145;28;20038;-66
2022/08/28 10:01:38;;;;;;;;;;;21.60;82.70;;;;;;5013853;28;19929;-66
2022/08/28 10:04:16;;;;;;;;;;;21.70;80.50;;;;;;5013954;28;19975;-66
2022/08/28 10:06:53;;;;;;;;;;;21.80;80.90;;;;;;5013870;28;19921;-65
2022/08/28 10:09:33;;;;;;;;;;;21.70;80.10;;;;;;5014220;28;19929;-66
2022/08/28 10:12:18;;;;;;;;;;;21.40;81.20;;;;;;5013909;28;19925;-65
2022/08/28 10:15:03;;;;;;;;;;;21.20;83.90;;;;;;5013876;28;20401;-66
2022/08/28 10:17:35;;;;;;;;;;;21.10;81.70;;;;;;5013670;28;19925;-66
2022/08/28 10:20:01;;;;;;;;;;;21.30;82.00;;;;;;5013917;28;19928;-66
2022/08/28 10:22:27;;;;;;;;;;;21.60;82.40;;;;;;5013751;28;20290;-66
2022/08/28 10:25:00;;;;;;;;;;;21.90;81.10;;;;;;5030737;28;19931;-66
2022/08/28 10:27:39;;;;;;;;;;;22.10;82.40;;;;;;5012914;28;19921;-66
2022/08/28 10:30:12;;;;;;;;;;;22.10;79.40;;;;;;5030593;28;20270;-66
2022/08/28 10:32:45;;;;;;;;;;;22.20;80.70;;;;;;5030734;28;19928;-66
2022/08/28 10:35:17;;;;;;;;;;;22.20;78.40;;;;;;4997288;28;19925;-66
2022/08/28 10:38:07;;;;;;;;;;;22.30;80.50;;;;;;5013175;28;19984;-66
2022/08/28 10:40:35;;;;;;;;;;;22.30;80.00;;;;;;5012922;28;19999;-66
2022/08/28 10:43:15;;;;;;;;;;;22.00;80.90;;;;;;5012947;28;19921;-66
2022/08/28 10:45:40;;;;;;;;;;;21.80;81.90;;;;;;5012903;28;19928;-66
2022/08/28 10:48:08;;;;;;;;;;;21.70;81.40;;;;;;5013475;28;19933;-66
2022/08/28 10:50:42;;;;;;;;;;;21.70;81.50;;;;;;5031434;28;20030;-66
2022/08/28 10:53:10;;;;;;;;;;;21.80;82.80;;;;;;4997115;28;19925;-66
2022/08/28 10:55:43;;;;;;;;;;;21.90;83.10;;;;;;5031243;28;20355;-66
2022/08/28 10:58:10;;;;;;;;;;;22.00;82.00;;;;;;5013761;28;19932;-66
2022/08/28 11:00:36;;;;;;;;;;;22.10;80.60;;;;;;5034495;28;19928;-66
2022/08/28 11:03:13;;;;;;;;;;;22.10;81.50;;;;;;5034905;28;19928;-66
2022/08/28 11:05:46;;;;;;;;;;;22.50;82.10;;;;;;5034908;28;19921;-66
2022/08/28 11:08:20;;;;;;;;;;;22.50;79.70;;;;;;5016973;28;19925;-65
2022/08/28 11:10:48;;;;;;;;;;;22.30;78.20;;;;;;5017105;28;19925;-65
2022/08/28 11:13:33;;;;;;;;;;;21.80;78.90;;;;;;5034744;28;19978;-65
2022/08/28 11:15:59;;;;;;;;;;;21.90;80.90;;;;;;5016830;28;20280;-66
2022/08/28 11:18:33;;;;;;;;;;;22.10;80.90;;;;;;5016668;28;19929;-66
2022/08/28 11:21:08;;;;;;;;;;;22.10;78.00;;;;;;5016833;28;19932;-66
2022/08/28 11:24:00;;;;;;;;;;;22.00;79.50;;;;;;5016732;28;19925;-66
2022/08/28 11:26:32;;;;;;;;;;;22.10;81.20;;;;;;5012591;28;19925;-65
2022/08/28 11:28:58;;;;;;;;;;;21.90;79.70;;;;;;5016739;28;19928;-66
2022/08/28 11:31:25;;;;;;;;;;;22.10;81.80;;;;;;5016472;28;19925;-66
2022/08/28 11:33:51;;;;;;;;;;;22.20;81.40;;;;;;5000146;28;19929;-66
2022/08/28 11:36:17;;;;;;;;;;;22.40;82.20;;;;;;5016796;28;19925;-66
2022/08/28 11:38:43;;;;;;;;;;;22.10;81.00;;;;;;5016359;28;20044;-66
2022/08/28 11:41:19;;;;;;;;;;;21.80;80.70;;;;;;5016735;28;20023;-66
2022/08/28 11:43:46;;;;;;;;;;;21.80;82.80;;;;;;5016279;28;19932;-66
2022/08/28 11:46:14;;;;;;;;;;;22.00;79.30;;;;;;5016420;28;19921;-65
2022/08/28 11:48:47;;;;;;;;;;;21.90;80.40;;;;;;5016048;28;19928;-66
2022/08/28 11:51:16;;;;;;;;;;;21.90;80.80;;;;;;4999784;28;19929;-66
2022/08/28 11:53:52;;;;;;;;;;;22.20;82.70;;;;;;5015660;28;19929;-66
2022/08/28 11:56:24;;;;;;;;;;;22.20;79.90;;;;;;5015954;28;19921;-66
2022/08/28 11:59:02;;;;;;;;;;;22.00;76.80;;;;;;5015887;28;19921;-66
2022/08/28 12:01:29;;;;;;;;;;;22.00;76.60;;;;;;5016089;28;19925;-65
2022/08/28 12:03:58;;;;;;;;;;;22.20;79.30;;;;;;5033620;28;19986;-66
2022/08/28 12:06:42;;;;;;;;;;;22.40;79.30;;;;;;5015887;28;20383;-66
2022/08/28 12:09:08;;;;;;;;;;;22.60;77.50;;;;;;5015925;28;19921;-65
2022/08/28 12:11:40;;;;;;;;;;;22.40;75.60;;;;;;5015826;28;20342;-66
2022/08/28 12:14:05;;;;;;;;;;;22.60;77.00;;;;;;4999569;28;20041;-66
2022/08/28 12:16:50;;;;;;;;;;;22.60;77.50;;;;;;5015472;28;20410;-65
2022/08/28 12:19:25;;;;;;;;;;;22.40;76.00;;;;;;5015354;28;20617;-65
2022/08/28 12:21:51;;;;;;;;;;;22.30;79.30;;;;;;5015500;28;20592;-66
2022/08/28 12:24:21;;;;;;;;;;;22.20;78.70;;;;;;5015469;28;19929;-66
2022/08/28 12:26:50;;;;;;;;;;;22.30;74.70;;;;;;5033255;28;19921;-66
2022/08/28 12:29:33;;;;;;;;;;;22.60;77.60;;;;;;4998866;28;20318;-66
2022/08/28 12:32:17;;;;;;;;;;;22.70;76.90;;;;;;5033245;28;19928;-66
2022/08/28 12:34:58;;;;;;;;;;;23.00;79.40;;;;;;5015133;28;19925;-66
2022/08/28 12:37:33;;;;;;;;;;;23.00;76.30;;;;;;5015215;28;20019;-65
2022/08/28 12:40:18;;;;;;;;;;;22.90;75.60;;;;;;5015111;28;20012;-65
2022/08/28 12:42:55;;;;;;;;;;;23.10;76.10;;;;;;5033040;28;19932;-65
2022/08/28 12:45:29;;;;;;;;;;;22.80;76.30;;;;;;5032943;28;19921;-66
2022/08/28 12:47:56;;;;;;;;;;;22.60;78.50;;;;;;5015437;28;19999;-66
2022/08/28 12:50:30;;;;;;;;;;;22.30;79.00;;;;;;5015099;28;20027;-66
2022/08/28 12:52:58;;;;;;;;;;;22.30;79.20;;;;;;5014811;28;19979;-66
2022/08/28 12:55:23;;;;;;;;;;;22.50;80.00;;;;;;5014830;28;19960;-66
2022/08/28 12:57:49;;;;;;;;;;;22.70;77.50;;;;;;5014748;28;19964;-66
2022/08/28 13:00:20;;;;;;;;;;;22.70;78.80;;;;;;5014717;28;20274;-66
2022/08/28 13:02:46;;;;;;;;;;;21.80;78.10;;;;;;5014736;28;19999;-66
2022/08/28 13:05:25;;;;;;;;;;;21.20;79.50;;;;;;5014656;28;19925;-66
2022/08/28 13:07:53;;;;;;;;;;;21.40;79.50;;;;;;4998311;28;19971;-66
2022/08/28 13:10:29;;;;;;;;;;;21.80;81.90;;;;;;5014318;28;19940;-65
2022/08/28 13:13:02;;;;;;;;;;;22.10;80.30;;;;;;5014617;28;19933;-66
2022/08/28 13:15:45;;;;;;;;;;;22.60;79.30;;;;;;5032228;28;19928;-66
2022/08/28 13:18:30;;;;;;;;;;;22.80;80.30;;;;;;5014604;28;19921;-66
2022/08/28 13:21:09;;;;;;;;;;;23.00;77.70;;;;;;5014509;28;20370;-66
2022/08/28 13:23:35;;;;;;;;;;;23.10;79.90;;;;;;5031946;28;20355;-66
2022/08/28 13:26:05;;;;;;;;;;;23.20;80.10;;;;;;4997827;28;19932;-65
2022/08/28 13:28:35;;;;;;;;;;;23.30;78.10;;;;;;5014331;28;19921;-65
2022/08/28 13:31:01;;;;;;;;;;;23.30;77.80;;;;;;5031922;28;19940;-66
2022/08/28 13:33:26;;;;;;;;;;;23.30;78.70;;;;;;5031947;28;20271;-66
2022/08/28 13:35:52;;;;;;;;;;;23.00;78.20;;;;;;5014396;28;19921;-66
2022/08/28 13:38:19;;;;;;;;;;;23.10;80.60;;;;;;4997948;28;19925;-66
2022/08/28 13:40:50;;;;;;;;;;;23.10;79.60;;;;;;5014054;28;20441;-66
2022/08/28 13:43:16;;;;;;;;;;;23.10;79.50;;;;;;5014236;28;19928;-66
2022/08/28 13:45:42;;;;;;;;;;;22.90;80.00;;;;;;4997826;28;20442;-66
2022/08/28 13:48:09;;;;;;;;;;;22.70;81.20;;;;;;5014212;28;19956;-65
2022/08/28 13:50:36;;;;;;;;;;;22.70;80.90;;;;;;5031683;28;19972;-66
2022/08/28 13:53:01;;;;;;;;;;;22.70;81.20;;;;;;5031566;28;19975;-66
2022/08/28 13:55:27;;;;;;;;;;;22.70;80.20;;;;;;4997592;28;19957;-66
2022/08/28 13:57:52;;;;;;;;;;;22.70;81.60;;;;;;5031902;28;19967;-66
2022/08/28 14:00:18;;;;;;;;;;;22.60;82.80;;;;;;5013858;28;19921;-66
2022/08/28 14:05:28;;;;;;;;;;;22.50;82.60;;;;;;5013632;28;19957;-66
2022/08/28 14:07:54;;;;;;;;;;;22.60;80.90;;;;;;5013876;28;20188;-66
2022/08/28 14:10:20;;;;;;;;;;;22.70;83.20;;;;;;5013797;28;19955;-65
2022/08/28 14:12:47;;;;;;;;;;;22.80;82.60;;;;;;5014123;28;20019;-66
2022/08/28 14:15:14;;;;;;;;;;;22.90;83.00;;;;;;5013847;28;19925;-66
2022/08/28 14:17:40;;;;;;;;;;;22.70;81.70;;;;;;5013845;28;19921;-66
2022/08/28 14:20:07;;;;;;;;;;;22.20;82.30;;;;;;5013903;28;19925;-66
2022/08/28 14:22:34;;;;;;;;;;;22.50;84.10;;;;;;5031550;28;19975;-66
2022/08/28 14:24:59;;;;;;;;;;;22.40;82.90;;;;;;5013792;28;20400;-66
2022/08/28 14:27:25;;;;;;;;;;;22.40;84.70;;;;;;5031595;28;19972;-66
2022/08/28 14:29:52;;;;;;;;;;;22.40;84.40;;;;;;5013701;28;19975;-66
2022/08/28 14:32:18;;;;;;;;;;;22.40;84.50;;;;;;5013782;28;20006;-67
2022/08/28 14:34:44;;;;;;;;;;;22.20;84.20;;;;;;5015732;28;19952;-67
2022/08/28 14:37:09;;;;;;;;;;;22.20;83.40;;;;;;5035236;28;20299;-67